createdAt,value
2022-11-24T00:01:21.144Z,7.40
2022-11-24T00:04:01.798Z,7.40
2022-11-24T00:06:30.657Z,7.30
2022-11-24T00:08:58.814Z,7.30
2022-11-24T00:11:32.899Z,7.30
2022-11-24T00:14:00.954Z,7.30
2022-11-24T00:16:34.294Z,7.30
2022-11-24T00:19:05.376Z,7.40
2022-11-24T00:21:32.819Z,7.30
2022-11-24T00:24:00.219Z,7.30
2022-11-24T00:26:31.017Z,7.30
2022-11-24T00:29:01.774Z,7.20
2022-11-24T00:31:39.994Z,7.10
2022-11-24T00:34:11.489Z,7.30
2022-11-24T00:36:39.361Z,7.20
2022-11-24T00:39:11.389Z,7.20
2022-11-24T00:41:38.616Z,7.20
2022-11-24T00:44:05.947Z,7.10
2022-11-24T00:46:33.562Z,7.20
2022-11-24T00:49:00.745Z,7.10
2022-11-24T00:51:30.299Z,7.10
2022-11-24T00:54:01.658Z,7.10
2022-11-24T00:56:30.006Z,7.10
2022-11-24T00:58:57.532Z,7.20
2022-11-24T01:01:28.322Z,7.10
2022-11-24T01:03:55.848Z,7.20
2022-11-24T01:06:25.963Z,7.20
2022-11-24T01:08:53.643Z,7.20
2022-11-24T01:11:28.152Z,7.20
2022-11-24T01:16:40.071Z,7.20
2022-11-24T01:19:07.083Z,7.30
2022-11-24T01:25:15.950Z,7.20
2022-11-24T01:27:42.962Z,7.30
2022-11-24T01:30:11.077Z,7.30
2022-11-24T01:32:38.095Z,7.30
2022-11-24T01:35:06.730Z,7.30
2022-11-24T01:40:16.639Z,7.30
2022-11-24T01:42:50.679Z,7.30
2022-11-24T01:45:28.447Z,7.30
2022-11-24T01:47:56.155Z,7.20
2022-11-24T01:50:23.961Z,7.20
2022-11-24T01:52:55.311Z,7.10
2022-11-24T01:55:31.594Z,7.10
2022-11-24T01:58:37.798Z,7.20
2022-11-24T02:01:05.156Z,7.20
2022-11-24T02:06:24.094Z,7.20
2022-11-24T02:11:39.648Z,7.20
2022-11-24T02:14:10.555Z,7.20
2022-11-24T02:16:39.202Z,7.10
2022-11-24T02:19:33.464Z,7.20
2022-11-24T02:22:01.577Z,7.30
2022-11-24T02:25:01.624Z,7.30
2022-11-24T02:27:28.790Z,7.30
2022-11-24T02:29:55.991Z,7.40
2022-11-24T02:32:23.885Z,7.40
2022-11-24T02:35:05.344Z,7.40
2022-11-24T02:37:32.299Z,7.40
2022-11-24T02:39:59.389Z,7.40
2022-11-24T02:42:31.094Z,7.50
2022-11-24T02:45:01.701Z,7.60
2022-11-24T02:47:28.765Z,7.70
2022-11-24T02:49:55.706Z,7.70
2022-11-24T02:52:22.654Z,7.70
2022-11-24T02:54:52.299Z,7.80
2022-11-24T02:57:19.297Z,7.80
2022-11-24T02:59:46.625Z,7.90
2022-11-24T03:02:13.595Z,7.90
2022-11-24T03:04:40.737Z,8.00
2022-11-24T03:07:07.844Z,8.00
2022-11-24T03:09:34.802Z,7.90
2022-11-24T03:12:01.726Z,7.90
2022-11-24T03:14:28.833Z,7.90
2022-11-24T03:34:39.667Z,8.10
2022-11-24T03:37:10.552Z,8.20
2022-11-24T03:53:35.536Z,8.20
2022-11-24T04:01:35.719Z,8.30
2022-11-24T04:06:40.516Z,8.30
2022-11-24T04:14:33.713Z,8.20
2022-11-24T04:29:53.184Z,8.10
2022-11-24T04:32:20.400Z,8.10
2022-11-24T04:34:47.396Z,8.10
2022-11-24T04:37:14.503Z,8.10
2022-11-24T04:39:41.685Z,8.00
2022-11-24T04:44:49.590Z,8.00
2022-11-24T04:47:21.215Z,8.00
2022-11-24T04:49:49.232Z,8.10
2022-11-24T04:52:22.846Z,8.10
2022-11-24T04:54:50.772Z,8.10
2022-11-24T04:57:24.562Z,8.00
2022-11-24T04:59:52.750Z,8.00
2022-11-24T05:02:20.637Z,8.00
2022-11-24T05:04:48.263Z,8.00
2022-11-24T05:07:18.882Z,8.00
2022-11-24T05:10:05.661Z,8.00
2022-11-24T05:12:33.007Z,7.90
2022-11-24T05:15:01.999Z,7.90
2022-11-24T05:17:34.935Z,7.90
2022-11-24T05:20:02.942Z,7.90
2022-11-24T05:22:30.445Z,7.90
2022-11-24T05:24:57.679Z,7.90
2022-11-24T05:27:25.212Z,7.90
2022-11-24T05:29:52.156Z,7.90
2022-11-24T05:32:19.184Z,7.80
2022-11-24T05:34:46.190Z,7.80
2022-11-24T05:37:13.157Z,7.80
2022-11-24T05:39:40.185Z,7.80
2022-11-24T05:42:27.169Z,7.80
2022-11-24T05:44:54.413Z,7.90
2022-11-24T05:47:21.958Z,8.00
2022-11-24T05:49:49.409Z,8.00
2022-11-24T05:52:17.202Z,8.00
2022-11-24T05:54:44.424Z,8.00
2022-11-24T05:57:11.358Z,8.00
2022-11-24T05:59:38.494Z,8.00
2022-11-24T06:02:05.547Z,8.00
2022-11-24T06:04:32.881Z,8.00
2022-11-24T06:07:00.182Z,8.00
2022-11-24T06:09:27.424Z,7.90
2022-11-24T06:11:54.622Z,7.90
2022-11-24T06:14:21.661Z,7.90
2022-11-24T06:16:48.670Z,7.90
2022-11-24T06:19:15.670Z,8.00
2022-11-24T06:21:42.674Z,7.90
2022-11-24T06:24:09.778Z,7.90
2022-11-24T06:26:36.797Z,8.00
2022-11-24T06:29:03.947Z,8.00
2022-11-24T06:31:31.032Z,7.90
2022-11-24T06:33:59.428Z,7.90
2022-11-24T06:36:26.958Z,7.90
2022-11-24T06:38:54.413Z,7.90
2022-11-24T06:41:21.431Z,7.90
2022-11-24T06:43:48.452Z,7.90
2022-11-24T06:46:15.512Z,7.80
2022-11-24T06:48:42.597Z,7.80
2022-11-24T06:51:13.077Z,7.80
2022-11-24T06:53:41.190Z,7.70
2022-11-24T06:56:16.256Z,7.80
2022-11-24T06:58:51.777Z,7.80
2022-11-24T07:01:21.655Z,7.80
2022-11-24T07:03:49.655Z,7.80
2022-11-24T07:06:17.930Z,7.90
2022-11-24T07:08:45.343Z,7.90
2022-11-24T07:11:17.129Z,7.80
2022-11-24T07:13:45.561Z,7.80
2022-11-24T07:16:22.515Z,7.80
2022-11-24T07:18:52.372Z,7.80
2022-11-24T07:21:21.172Z,7.80
2022-11-24T07:23:54.380Z,7.80
2022-11-24T07:26:22.077Z,7.80
2022-11-24T07:28:49.545Z,7.80
2022-11-24T07:31:20.394Z,7.80
2022-11-24T07:33:52.647Z,7.80
2022-11-24T07:36:20.162Z,7.80
2022-11-24T07:38:47.270Z,7.80
2022-11-24T07:41:16.590Z,7.70
2022-11-24T07:43:43.683Z,7.60
2022-11-24T07:46:13.467Z,7.60
2022-11-24T07:48:40.615Z,7.60
2022-11-24T07:51:08.133Z,7.60
2022-11-24T07:53:36.475Z,7.50
2022-11-24T07:56:06.231Z,7.50
2022-11-24T07:58:36.492Z,7.50
2022-11-24T08:01:15.993Z,7.50
2022-11-24T08:03:44.070Z,7.50
2022-11-24T08:06:35.390Z,7.40
2022-11-24T08:08:59.898Z,7.40
2022-11-24T08:11:27.859Z,7.40
2022-11-24T08:13:54.905Z,7.40
2022-11-24T08:16:21.949Z,7.40
2022-11-24T08:18:54.949Z,7.40
2022-11-24T08:21:25.610Z,7.40
2022-11-24T08:23:57.494Z,7.40
2022-11-24T08:26:25.502Z,7.50
2022-11-24T08:28:59.483Z,7.50
2022-11-24T08:31:33.567Z,7.50
2022-11-24T08:34:02.493Z,7.60
2022-11-24T08:36:29.746Z,7.50
2022-11-24T08:38:59.249Z,7.60
2022-11-24T08:41:27.561Z,7.70
2022-11-24T08:43:55.713Z,7.70
2022-11-24T08:46:24.011Z,7.80
2022-11-24T08:48:54.411Z,7.80
2022-11-24T08:51:25.938Z,7.90
2022-11-24T08:53:58.684Z,7.90
2022-11-24T08:56:31.733Z,7.90
2022-11-24T08:58:59.665Z,7.90
2022-11-24T09:01:27.624Z,8.00
2022-11-24T09:03:55.285Z,8.10
2022-11-24T09:06:27.186Z,8.10
2022-11-24T09:08:55.610Z,8.10
2022-11-24T09:11:24.639Z,8.20
2022-11-24T09:13:51.995Z,8.20
2022-11-24T09:16:29.046Z,8.30
2022-11-24T09:19:02.534Z,8.30
2022-11-24T09:21:31.160Z,8.30
2022-11-24T09:23:58.566Z,8.30
2022-11-24T09:26:29.264Z,8.40
2022-11-24T09:28:58.766Z,8.40
2022-11-24T09:31:29.591Z,8.50
2022-11-24T09:33:57.742Z,8.50
2022-11-24T09:36:25.066Z,8.50
2022-11-24T09:38:52.715Z,8.60
2022-11-24T09:42:08.935Z,8.60
2022-11-24T09:45:01.167Z,8.60
2022-11-24T09:48:03.990Z,8.70
2022-11-24T09:50:38.896Z,8.80
2022-11-24T09:53:39.840Z,8.80
2022-11-24T09:56:25.201Z,8.80
2022-11-24T09:58:54.799Z,8.80
2022-11-24T10:01:34.011Z,8.90
2022-11-24T10:04:06.427Z,8.90
2022-11-24T10:07:03.630Z,8.90
2022-11-24T10:09:53.376Z,9.00
2022-11-24T10:13:02.885Z,9.00
2022-11-24T10:15:55.764Z,9.10
2022-11-24T10:18:50.084Z,9.20
2022-11-24T10:21:59.638Z,9.20
2022-11-24T10:24:32.684Z,9.30
2022-11-24T10:27:10.392Z,9.30
2022-11-24T10:29:41.546Z,9.30
2022-11-24T10:32:20.007Z,9.40
2022-11-24T10:34:50.714Z,9.40
2022-11-24T10:37:45.862Z,9.40
2022-11-24T10:43:28.469Z,9.50
2022-11-24T10:46:19.689Z,9.50
2022-11-24T10:48:57.718Z,9.50
2022-11-24T10:52:14.682Z,9.60
2022-11-24T10:55:14.242Z,9.60
2022-11-24T10:57:41.697Z,9.60
2022-11-24T11:00:20.935Z,9.70
2022-11-24T11:03:25.550Z,9.70
2022-11-24T11:06:14.164Z,9.70
2022-11-24T11:08:41.749Z,9.70
2022-11-24T11:11:34.941Z,9.80
2022-11-24T11:14:12.996Z,9.80
2022-11-24T11:19:49.801Z,9.90
2022-11-24T11:22:37.249Z,9.80
2022-11-24T11:25:10.281Z,9.90
2022-11-24T11:27:40.282Z,9.90
2022-11-24T11:36:14.805Z,10.00
2022-11-24T11:38:43.564Z,10.10
2022-11-24T11:41:28.893Z,10.10
2022-11-24T11:44:28.785Z,10.10
2022-11-24T11:46:59.321Z,10.20
2022-11-24T11:49:26.557Z,10.20
2022-11-24T11:52:47.677Z,10.30
2022-11-24T11:55:31.765Z,10.20
2022-11-24T11:58:39.834Z,10.30
2022-11-24T12:01:07.722Z,10.30
2022-11-24T12:04:15.138Z,10.30
2022-11-24T12:07:09.432Z,10.30
2022-11-24T12:10:05.489Z,10.30
2022-11-24T12:16:02.291Z,10.40
2022-11-24T12:19:03.838Z,10.40
2022-11-24T12:21:49.630Z,10.50
2022-11-24T12:24:32.725Z,10.50
2022-11-24T12:27:17.915Z,10.50
2022-11-24T12:30:11.158Z,10.60
2022-11-24T12:32:56.659Z,10.60
2022-11-24T12:35:42.763Z,10.60
2022-11-24T12:38:21.782Z,10.70
2022-11-24T12:44:32.758Z,10.70
2022-11-24T12:47:35.585Z,10.70
2022-11-24T12:50:21.116Z,10.70
2022-11-24T12:53:00.951Z,10.70
2022-11-24T12:55:32.231Z,10.80
2022-11-24T12:58:50.377Z,10.80
2022-11-24T13:01:36.159Z,10.90
2022-11-24T13:07:12.423Z,10.90
2022-11-24T13:10:54.219Z,10.80
2022-11-24T13:13:15.562Z,10.80
2022-11-24T13:16:28.543Z,10.90
2022-11-24T13:18:59.267Z,10.80
2022-11-24T13:22:01.076Z,10.90
2022-11-24T13:24:32.006Z,10.90
2022-11-24T13:27:17.976Z,10.90
2022-11-24T13:29:48.172Z,10.90
2022-11-24T13:32:15.049Z,10.90
2022-11-24T13:34:49.853Z,10.90
2022-11-24T13:37:31.150Z,10.90
2022-11-24T13:40:17.838Z,11.00
2022-11-24T13:43:01.674Z,10.90
2022-11-24T13:45:49.559Z,10.90
2022-11-24T13:48:19.949Z,10.90
2022-11-24T13:50:49.994Z,10.80
2022-11-24T13:53:28.719Z,10.80
2022-11-24T13:56:03.225Z,10.80
2022-11-24T13:58:44.743Z,10.70
2022-11-24T14:01:35.554Z,10.70
2022-11-24T14:04:32.629Z,10.70
2022-11-24T14:07:11.635Z,10.70
2022-11-24T14:09:52.195Z,10.60
2022-11-24T14:12:25.223Z,10.70
2022-11-24T14:14:57.466Z,10.70
2022-11-24T14:17:28.794Z,10.70
2022-11-24T14:19:58.311Z,10.60
2022-11-24T14:22:34.810Z,10.50
2022-11-24T14:25:03.675Z,10.50
2022-11-24T14:27:39.281Z,10.50
2022-11-24T14:30:21.255Z,10.50
2022-11-24T14:33:00.944Z,10.40
2022-11-24T14:35:45.852Z,10.40
2022-11-24T14:38:13.475Z,10.30
2022-11-24T14:40:53.219Z,10.20
2022-11-24T14:43:30.423Z,10.20
2022-11-24T14:45:58.443Z,10.10
2022-11-24T14:48:29.441Z,10.10
2022-11-24T14:51:11.349Z,10.10
2022-11-24T14:53:45.733Z,10.10
2022-11-24T14:56:24.154Z,10.00
2022-11-24T14:58:52.438Z,10.00
2022-11-24T15:01:32.803Z,10.10
2022-11-24T15:04:26.930Z,10.10
2022-11-24T15:07:24.955Z,10.00
2022-11-24T15:10:00.305Z,10.00
2022-11-24T15:12:40.825Z,9.90
2022-11-24T15:15:13.816Z,9.90
2022-11-24T15:17:57.526Z,9.80
2022-11-24T15:20:27.193Z,9.70
2022-11-24T15:23:16.113Z,9.60
2022-11-24T15:25:43.993Z,9.60
2022-11-24T15:28:12.015Z,9.50
2022-11-24T15:30:39.256Z,9.40
2022-11-24T15:33:18.191Z,9.40
2022-11-24T15:35:46.083Z,9.40
2022-11-24T15:38:13.773Z,9.30
2022-11-24T15:40:43.530Z,9.30
2022-11-24T15:43:28.846Z,9.20
2022-11-24T15:45:56.021Z,9.10
2022-11-24T15:48:23.122Z,9.00
2022-11-24T15:50:51.218Z,9.00
2022-11-24T15:53:27.288Z,9.00
2022-11-24T15:55:56.477Z,8.80
2022-11-24T15:58:24.428Z,8.70
2022-11-24T16:00:53.822Z,8.70
2022-11-24T16:06:24.800Z,8.70
2022-11-24T16:08:53.669Z,8.70
2022-11-24T16:11:21.674Z,8.70
2022-11-24T16:13:52.813Z,8.60
2022-11-24T16:16:22.956Z,8.60
2022-11-24T16:18:50.647Z,8.50
2022-11-24T16:21:17.792Z,8.40
2022-11-24T16:23:45.706Z,8.40
2022-11-24T16:26:12.719Z,8.30
2022-11-24T16:28:40.647Z,8.30
2022-11-24T16:31:07.861Z,8.30
2022-11-24T16:33:34.888Z,8.30
2022-11-24T16:36:01.843Z,8.40
2022-11-24T16:38:28.869Z,8.40
2022-11-24T16:40:56.889Z,8.40
2022-11-24T16:43:24.809Z,8.50
2022-11-24T16:46:23.337Z,8.40
2022-11-24T16:48:53.752Z,8.40
2022-11-24T16:51:29.913Z,8.40
2022-11-24T16:54:02.372Z,8.40
2022-11-24T16:56:30.490Z,8.30
2022-11-24T16:58:57.560Z,8.50
2022-11-24T17:01:26.112Z,8.40
2022-11-24T17:03:53.396Z,8.40
2022-11-24T17:06:20.511Z,8.50
2022-11-24T17:08:48.411Z,8.50
2022-11-24T17:11:21.181Z,8.40
2022-11-24T17:13:49.288Z,8.40
2022-11-24T17:16:20.158Z,8.30
2022-11-24T17:18:47.951Z,8.40
2022-11-24T17:21:18.746Z,8.30
2022-11-24T17:23:46.047Z,8.30
2022-11-24T17:26:16.291Z,8.40
2022-11-24T17:28:43.527Z,8.40
2022-11-24T17:31:22.109Z,8.40
2022-11-24T17:33:50.662Z,8.40
2022-11-24T17:36:17.804Z,8.40
2022-11-24T17:38:44.824Z,8.40
2022-11-24T17:41:12.431Z,8.30
2022-11-24T17:43:40.036Z,8.40
2022-11-24T17:46:07.675Z,8.40
2022-11-24T17:48:36.702Z,8.30
2022-11-24T17:51:09.619Z,8.30
2022-11-24T17:53:37.614Z,8.30
2022-11-24T17:56:06.645Z,8.40
2022-11-24T17:58:41.239Z,8.30
2022-11-24T18:01:10.312Z,8.20
2022-11-24T18:03:39.899Z,8.20
2022-11-24T18:06:09.524Z,8.20
2022-11-24T18:08:38.494Z,8.10
2022-11-24T18:11:12.936Z,8.10
2022-11-24T18:14:00.234Z,8.00
2022-11-24T18:16:30.515Z,8.00
2022-11-24T18:19:09.811Z,8.10
2022-11-24T18:21:42.381Z,8.00
2022-11-24T18:24:11.393Z,8.00
2022-11-24T18:26:42.231Z,7.90
2022-11-24T18:29:11.046Z,7.90
2022-11-24T18:31:38.885Z,7.90
2022-11-24T18:34:07.012Z,7.90
2022-11-24T18:36:35.144Z,7.90
2022-11-24T18:39:05.313Z,7.80
2022-11-24T18:41:33.073Z,7.80
2022-11-24T18:44:07.821Z,7.80
2022-11-24T18:46:35.193Z,7.70
2022-11-24T18:49:04.537Z,7.70
2022-11-24T18:51:31.719Z,7.80
2022-11-24T18:53:59.135Z,7.80
2022-11-24T18:56:26.980Z,7.80
2022-11-24T18:58:56.077Z,7.70
2022-11-24T19:01:29.014Z,7.70
2022-11-24T19:03:59.582Z,7.80
2022-11-24T19:06:33.951Z,7.70
2022-11-24T19:09:17.271Z,7.70
2022-11-24T19:11:45.986Z,7.70
2022-11-24T19:14:16.786Z,7.70
2022-11-24T19:16:45.671Z,7.70
2022-11-24T19:19:13.055Z,7.80
2022-11-24T19:21:40.564Z,7.70
2022-11-24T19:24:10.213Z,7.60
2022-11-24T19:26:38.392Z,7.60
2022-11-24T19:29:07.161Z,7.60
2022-11-24T19:31:35.708Z,7.50
2022-11-24T19:34:03.502Z,7.50
2022-11-24T19:36:31.325Z,7.50
2022-11-24T19:38:59.563Z,7.50
2022-11-24T19:41:29.951Z,7.50
2022-11-24T19:43:58.684Z,7.50
2022-11-24T19:46:29.563Z,7.50
2022-11-24T19:49:00.748Z,7.60
2022-11-24T19:51:32.782Z,7.50
2022-11-24T19:54:00.733Z,7.50
2022-11-24T19:56:30.607Z,7.50
2022-11-24T19:58:57.965Z,7.50
2022-11-24T20:01:37.632Z,7.50
2022-11-24T20:04:18.756Z,7.50
2022-11-24T20:06:47.730Z,7.50
2022-11-24T20:09:17.994Z,7.50
2022-11-24T20:11:45.687Z,7.50
2022-11-24T20:14:15.256Z,7.60
2022-11-24T20:16:42.418Z,7.70
2022-11-24T20:19:14.970Z,7.80
2022-11-24T20:21:46.182Z,7.80
2022-11-24T20:24:23.789Z,7.80
2022-11-24T20:26:58.213Z,7.80
2022-11-24T20:29:25.791Z,7.80
2022-11-24T20:31:55.105Z,7.90
2022-11-24T20:34:23.869Z,7.90
2022-11-24T20:36:52.899Z,8.00
2022-11-24T20:39:27.891Z,8.00
2022-11-24T20:41:56.374Z,8.00
2022-11-24T20:44:26.397Z,8.20
2022-11-24T20:46:57.099Z,8.20
2022-11-24T20:49:24.198Z,8.40
2022-11-24T20:51:54.564Z,8.40
2022-11-24T20:54:22.068Z,8.40
2022-11-24T20:56:49.490Z,8.40
2022-11-24T20:59:22.535Z,8.50
2022-11-24T21:01:51.223Z,8.50
2022-11-24T21:04:22.756Z,8.50
2022-11-24T21:06:50.175Z,8.50
2022-11-24T21:09:18.030Z,8.50
2022-11-24T21:11:45.477Z,8.50
2022-11-24T21:14:12.923Z,8.60
2022-11-24T21:16:42.334Z,8.60
2022-11-24T21:19:18.249Z,8.70
2022-11-24T21:21:50.050Z,8.80
2022-11-24T21:24:21.520Z,8.80
2022-11-24T21:26:49.184Z,8.80
2022-11-24T21:29:22.365Z,8.80
2022-11-24T21:31:49.852Z,8.80
2022-11-24T21:34:19.039Z,8.80
2022-11-24T21:36:46.793Z,8.80
2022-11-24T21:39:15.117Z,8.70
2022-11-24T21:41:43.236Z,8.70
2022-11-24T21:44:14.769Z,8.70
2022-11-24T21:46:48.133Z,8.70
2022-11-24T21:49:18.548Z,8.70
2022-11-24T21:51:45.678Z,8.70
2022-11-24T21:54:12.684Z,8.70
2022-11-24T21:56:39.865Z,8.70
2022-11-24T21:59:06.839Z,8.70
2022-11-24T22:01:34.059Z,8.70
2022-11-24T22:04:01.598Z,8.70
2022-11-24T22:06:28.610Z,8.70
2022-11-24T22:08:55.682Z,8.70
2022-11-24T22:11:25.155Z,8.80
2022-11-24T22:13:52.837Z,8.70
2022-11-24T22:16:23.059Z,8.80
2022-11-24T22:18:50.703Z,8.90
2022-11-24T22:21:24.243Z,8.80
2022-11-24T22:23:55.146Z,8.90
2022-11-24T22:26:23.970Z,8.90
2022-11-24T22:28:51.793Z,8.80
2022-11-24T22:31:32.253Z,8.80
2022-11-24T22:34:00.865Z,8.90
2022-11-24T22:36:30.151Z,9.00
2022-11-24T22:39:03.202Z,9.10
2022-11-24T22:41:32.683Z,9.10
2022-11-24T22:43:59.737Z,9.10
2022-11-24T22:46:30.417Z,9.20
2022-11-24T22:49:00.296Z,9.20
2022-11-24T22:51:33.390Z,9.30
2022-11-24T22:54:04.716Z,9.40
2022-11-24T22:56:33.300Z,9.40
2022-11-24T22:59:02.285Z,9.40
2022-11-24T23:01:31.393Z,9.40
2022-11-24T23:03:58.463Z,9.50
2022-11-24T23:06:29.086Z,9.40
2022-11-24T23:08:59.240Z,9.50
2022-11-24T23:11:38.743Z,9.50
2022-11-24T23:14:14.735Z,9.50
2022-11-24T23:16:42.892Z,9.60
2022-11-24T23:19:10.101Z,9.60
2022-11-24T23:21:38.536Z,9.60
2022-11-24T23:24:07.268Z,9.60
2022-11-24T23:26:39.586Z,9.70
2022-11-24T23:29:07.895Z,9.70
2022-11-24T23:31:36.438Z,9.80
2022-11-24T23:34:05.025Z,9.80
2022-11-24T23:36:33.155Z,9.80
2022-11-24T23:39:10.881Z,9.80
2022-11-24T23:41:37.921Z,9.80
2022-11-24T23:44:05.272Z,9.80
2022-11-24T23:46:33.047Z,9.90
2022-11-24T23:49:00.073Z,9.80
2022-11-24T23:51:31.299Z,9.90
2022-11-24T23:54:00.250Z,9.80
2022-11-24T23:56:52.216Z,9.90
2022-11-24T23:59:19.782Z,9.90
